Airport View

Enter AWOS ICAO identifier for current METAR.

ex. KFNL

KSYI 120515Z AUTO 08003KT 10SM CLR M03/M04 A3051 RMK A01

12 Dec 2019 05:34

Frequency: 119.275

Phone: 931-685-4723

Other Area AWOS: KTHA - KLUG - KMBT - KMQY

TAF KBNA 112340Z 1200/1224 12003KT P6SM SKC FM121700 16010KT P6SM SCT250